BTK6241 WIII-WIMM
Flight info
| Callsign | BTK6241 |
|---|---|
| Flight time | 1h 48m |
| Altitude | 38000 |
| Route | GOMEL T10 AKPER |
| Aircraft | A320/M-SDE3FGHIRWY/LB1 |
Departure
| Time | 2026-05-08 19:50 |
|---|---|
| Airport | Soekarno-Hatta International Airport (WIII) |
Arrival
| Time | 2026-05-08 21:39 |
|---|---|
| Airport | Kualanamu International Airport (WIMM) |
| Time | Latitude | Longitude | Altitude | Speed | Heading |
|---|---|---|---|---|---|
| 2026-05-08 19:26 | -6.12220 | 106.64945 | 36 ft | 0 kts | 146° |
| 2026-05-08 19:39 | -6.12219 | 106.64944 | 38 ft | 1 kts | 146° |
| 2026-05-08 19:39 | -6.12206 | 106.64935 | 38 ft | 3 kts | 145° |
| 2026-05-08 19:39 | -6.12190 | 106.64924 | 36 ft | 3 kts | 141° |
| 2026-05-08 19:40 | -6.12175 | 106.64910 | 38 ft | 3 kts | 132° |
| 2026-05-08 19:40 | -6.12163 | 106.64895 | 38 ft | 3 kts | 107° |
| 2026-05-08 19:40 | -6.12161 | 106.64881 | 38 ft | 1 kts | 69° |
| 2026-05-08 19:40 | -6.12162 | 106.64880 | 38 ft | 0 kts | 68° |
| 2026-05-08 19:43 | -6.12160 | 106.64885 | 38 ft | 5 kts | 68° |
| 2026-05-08 19:44 | -6.12132 | 106.64954 | 38 ft | 11 kts | 68° |
| 2026-05-08 19:44 | -6.12080 | 106.64999 | 36 ft | 9 kts | 14° |
| 2026-05-08 19:44 | -6.12020 | 106.65008 | 38 ft | 9 kts | 9° |
| 2026-05-08 19:44 | -6.11939 | 106.65013 | 38 ft | 12 kts | 346° |
| 2026-05-08 19:45 | -6.11866 | 106.64992 | 38 ft | 9 kts | 5° |
| 2026-05-08 19:45 | -6.11826 | 106.65039 | 39 ft | 12 kts | 69° |
| 2026-05-08 19:45 | -6.11786 | 106.65141 | 38 ft | 19 kts | 68° |
| 2026-05-08 19:45 | -6.11727 | 106.65289 | 38 ft | 26 kts | 68° |
| 2026-05-08 19:46 | -6.11660 | 106.65457 | 38 ft | 25 kts | 68° |
| 2026-05-08 19:46 | -6.11593 | 106.65624 | 37 ft | 24 kts | 68° |
| 2026-05-08 19:46 | -6.11459 | 106.65959 | 37 ft | 26 kts | 68° |
| 2026-05-08 19:47 | -6.11390 | 106.66132 | 38 ft | 27 kts | 68° |
| 2026-05-08 19:47 | -6.11319 | 106.66313 | 37 ft | 28 kts | 68° |
| 2026-05-08 19:47 | -6.11255 | 106.66474 | 38 ft | 20 kts | 68° |
| 2026-05-08 19:47 | -6.11200 | 106.66609 | 38 ft | 22 kts | 68° |
| 2026-05-08 19:48 | -6.11141 | 106.66755 | 38 ft | 23 kts | 68° |
| 2026-05-08 19:48 | -6.11093 | 106.66877 | 36 ft | 17 kts | 68° |
| 2026-05-08 19:48 | -6.11018 | 106.66968 | 38 ft | 18 kts | 10° |
| 2026-05-08 19:48 | -6.10925 | 106.66903 | 35 ft | 15 kts | 323° |
| 2026-05-08 19:49 | -6.10909 | 106.66854 | 36 ft | 7 kts | 250° |
| 2026-05-08 19:49 | -6.10926 | 106.66810 | 35 ft | 10 kts | 249° |
| 2026-05-08 19:49 | -6.11035 | 106.66534 | 37 ft | 80 kts | 248° |
| 2026-05-08 19:49 | -6.11324 | 106.65811 | 37 ft | 140 kts | 248° |
| 2026-05-08 19:50 | -6.11742 | 106.64760 | 161 ft | 176 kts | 248° |
| 2026-05-08 19:50 | -6.12206 | 106.63605 | 817 ft | 181 kts | 250° |
| 2026-05-08 19:50 | -6.12582 | 106.62405 | 1582 ft | 181 kts | 270° |
| 2026-05-08 19:50 | -6.12301 | 106.61170 | 2209 ft | 189 kts | 289° |
| 2026-05-08 19:51 | -6.11831 | 106.59858 | 2511 ft | 213 kts | 291° |
| 2026-05-08 19:51 | -6.11294 | 106.58377 | 2886 ft | 238 kts | 290° |
| 2026-05-08 19:51 | -6.10713 | 106.56735 | 3300 ft | 262 kts | 289° |
| 2026-05-08 19:51 | -6.10103 | 106.54958 | 3966 ft | 273 kts | 289° |
| 2026-05-08 19:52 | -6.09488 | 106.53129 | 4832 ft | 279 kts | 288° |
| 2026-05-08 19:52 | -6.08877 | 106.51267 | 5721 ft | 282 kts | 288° |
| 2026-05-08 19:52 | -6.08104 | 106.49439 | 6581 ft | 287 kts | 301° |
| 2026-05-08 19:52 | -6.06855 | 106.47875 | 7417 ft | 289 kts | 318° |
| 2026-05-08 19:53 | -6.05208 | 106.46697 | 8218 ft | 293 kts | 329° |
| 2026-05-08 19:53 | -6.03464 | 106.45620 | 9002 ft | 296 kts | 329° |
| 2026-05-08 19:53 | -6.01700 | 106.44518 | 9760 ft | 300 kts | 329° |
| 2026-05-08 19:53 | -5.99901 | 106.43387 | 10270 ft | 314 kts | 328° |
| 2026-05-08 19:54 | -5.98005 | 106.42201 | 10472 ft | 337 kts | 329° |
| 2026-05-08 19:54 | -5.95957 | 106.40925 | 10801 ft | 353 kts | 329° |
| 2026-05-08 19:54 | -5.93823 | 106.39594 | 11424 ft | 359 kts | 328° |
| 2026-05-08 19:54 | -5.91694 | 106.38260 | 12103 ft | 362 kts | 328° |
| 2026-05-08 19:55 | -5.89547 | 106.36910 | 12761 ft | 366 kts | 328° |
| 2026-05-08 19:55 | -5.87376 | 106.35548 | 13398 ft | 370 kts | 328° |
| 2026-05-08 19:55 | -5.85214 | 106.34194 | 14014 ft | 374 kts | 329° |
| 2026-05-08 19:55 | -5.82993 | 106.32805 | 14606 ft | 378 kts | 329° |
| 2026-05-08 19:56 | -5.80754 | 106.31404 | 15205 ft | 381 kts | 329° |
| 2026-05-08 19:56 | -5.78490 | 106.29983 | 15774 ft | 385 kts | 329° |
| 2026-05-08 19:56 | -5.76176 | 106.28531 | 16336 ft | 389 kts | 329° |
| 2026-05-08 19:56 | -5.73912 | 106.27089 | 16867 ft | 393 kts | 326° |
| 2026-05-08 19:57 | -5.71740 | 106.25394 | 17385 ft | 397 kts | 322° |
| 2026-05-08 19:57 | -5.69567 | 106.23658 | 17899 ft | 401 kts | 323° |
| 2026-05-08 19:57 | -5.67374 | 106.21909 | 18403 ft | 404 kts | 323° |
| 2026-05-08 19:57 | -5.65164 | 106.20145 | 18899 ft | 407 kts | 322° |
| 2026-05-08 19:58 | -5.62941 | 106.18371 | 19379 ft | 410 kts | 322° |
| 2026-05-08 19:58 | -5.60695 | 106.16583 | 19765 ft | 413 kts | 322° |
| 2026-05-08 19:58 | -5.58439 | 106.14787 | 19844 ft | 414 kts | 322° |
| 2026-05-08 19:58 | -5.56184 | 106.12991 | 19851 ft | 414 kts | 322° |
| 2026-05-08 19:59 | -5.53932 | 106.11195 | 19851 ft | 414 kts | 322° |
| 2026-05-08 19:59 | -5.51681 | 106.09400 | 19850 ft | 413 kts | 322° |
| 2026-05-08 19:59 | -5.49429 | 106.07604 | 19851 ft | 413 kts | 322° |
| 2026-05-08 19:59 | -5.47176 | 106.05807 | 19850 ft | 413 kts | 322° |
| 2026-05-08 20:00 | -5.44928 | 106.04014 | 19852 ft | 413 kts | 322° |
| 2026-05-08 20:00 | -5.42675 | 106.02218 | 19851 ft | 413 kts | 322° |
| 2026-05-08 20:00 | -5.40421 | 106.00420 | 19850 ft | 413 kts | 322° |
| 2026-05-08 20:00 | -5.38170 | 105.98625 | 19859 ft | 413 kts | 322° |
| 2026-05-08 20:01 | -5.35919 | 105.96833 | 19859 ft | 414 kts | 322° |
| 2026-05-08 20:01 | -5.33664 | 105.95038 | 19860 ft | 414 kts | 322° |
| 2026-05-08 20:01 | -5.31409 | 105.93245 | 19861 ft | 414 kts | 322° |
| 2026-05-08 20:01 | -5.29153 | 105.91456 | 19861 ft | 414 kts | 322° |
| 2026-05-08 20:02 | -5.26893 | 105.89664 | 19861 ft | 414 kts | 322° |
| 2026-05-08 20:02 | -5.24634 | 105.87870 | 19858 ft | 414 kts | 322° |
| 2026-05-08 20:02 | -5.22380 | 105.86078 | 19861 ft | 414 kts | 322° |
| 2026-05-08 20:02 | -5.20122 | 105.84283 | 19861 ft | 414 kts | 322° |
| 2026-05-08 20:03 | -5.17854 | 105.82502 | 19946 ft | 416 kts | 323° |
| 2026-05-08 20:03 | -5.15519 | 105.80770 | 20437 ft | 418 kts | 325° |
| 2026-05-08 20:03 | -5.13141 | 105.79080 | 20911 ft | 420 kts | 326° |
| 2026-05-08 20:03 | -5.10731 | 105.77403 | 21366 ft | 423 kts | 326° |
| 2026-05-08 20:04 | -5.08301 | 105.75723 | 21778 ft | 426 kts | 326° |
| 2026-05-08 20:04 | -5.05864 | 105.74026 | 22186 ft | 428 kts | 326° |
| 2026-05-08 20:04 | -5.03417 | 105.72305 | 22586 ft | 431 kts | 325° |
| 2026-05-08 20:04 | -5.00965 | 105.70565 | 22975 ft | 433 kts | 325° |
| 2026-05-08 20:05 | -4.98500 | 105.68807 | 23354 ft | 436 kts | 325° |
| 2026-05-08 20:05 | -4.96023 | 105.67039 | 23740 ft | 438 kts | 325° |
| 2026-05-08 20:05 | -4.93537 | 105.65268 | 24103 ft | 440 kts | 325° |
| 2026-05-08 20:05 | -4.91034 | 105.63484 | 24453 ft | 443 kts | 325° |
| 2026-05-08 20:06 | -4.88513 | 105.61689 | 24797 ft | 445 kts | 325° |
| 2026-05-08 20:06 | -4.85981 | 105.59890 | 25133 ft | 447 kts | 325° |
| 2026-05-08 20:06 | -4.83439 | 105.58086 | 25448 ft | 449 kts | 325° |
| 2026-05-08 20:06 | -4.80921 | 105.56298 | 25762 ft | 451 kts | 325° |
| 2026-05-08 20:07 | -4.78323 | 105.54451 | 26082 ft | 453 kts | 325° |
| 2026-05-08 20:07 | -4.75747 | 105.52617 | 26395 ft | 455 kts | 325° |
| 2026-05-08 20:07 | -4.73195 | 105.50800 | 26681 ft | 457 kts | 325° |
| 2026-05-08 20:07 | -4.70566 | 105.48932 | 26990 ft | 459 kts | 325° |
| 2026-05-08 20:08 | -4.67958 | 105.47081 | 27288 ft | 460 kts | 325° |
| 2026-05-08 20:08 | -4.65340 | 105.45222 | 27578 ft | 462 kts | 325° |
| 2026-05-08 20:08 | -4.62744 | 105.43381 | 27860 ft | 464 kts | 325° |
| 2026-05-08 20:08 | -4.60107 | 105.41509 | 28132 ft | 465 kts | 325° |
| 2026-05-08 20:09 | -4.57460 | 105.39630 | 28392 ft | 468 kts | 325° |
| 2026-05-08 20:09 | -4.54795 | 105.37739 | 28661 ft | 470 kts | 325° |
| 2026-05-08 20:09 | -4.52120 | 105.35840 | 28918 ft | 472 kts | 326° |
| 2026-05-08 20:09 | -4.49438 | 105.33938 | 29163 ft | 474 kts | 326° |
| 2026-05-08 20:10 | -4.46742 | 105.32026 | 29410 ft | 475 kts | 326° |
| 2026-05-08 20:10 | -4.44045 | 105.30109 | 29651 ft | 476 kts | 326° |
| 2026-05-08 20:10 | -4.41339 | 105.28182 | 29884 ft | 478 kts | 326° |
| 2026-05-08 20:10 | -4.38628 | 105.26253 | 30122 ft | 479 kts | 326° |
| 2026-05-08 20:11 | -4.35899 | 105.24316 | 30355 ft | 481 kts | 326° |
| 2026-05-08 20:11 | -4.33163 | 105.22375 | 30590 ft | 482 kts | 326° |
| 2026-05-08 20:11 | -4.30425 | 105.20435 | 30904 ft | 481 kts | 326° |
| 2026-05-08 20:11 | -4.27703 | 105.18502 | 31248 ft | 480 kts | 326° |
| 2026-05-08 20:12 | -4.24991 | 105.16573 | 31594 ft | 478 kts | 326° |
| 2026-05-08 20:12 | -4.22285 | 105.14654 | 31927 ft | 476 kts | 326° |
| 2026-05-08 20:12 | -4.19577 | 105.12737 | 32280 ft | 475 kts | 326° |
| 2026-05-08 20:12 | -4.16884 | 105.10834 | 32616 ft | 473 kts | 327° |
| 2026-05-08 20:13 | -4.14203 | 105.08938 | 32959 ft | 472 kts | 327° |
| 2026-05-08 20:13 | -4.11523 | 105.07039 | 33300 ft | 471 kts | 327° |
| 2026-05-08 20:13 | -4.08954 | 105.05005 | 33636 ft | 471 kts | 319° |
| 2026-05-08 20:13 | -4.06572 | 105.02744 | 33970 ft | 470 kts | 319° |
| 2026-05-08 20:14 | -4.04197 | 105.00503 | 34299 ft | 469 kts | 319° |
| 2026-05-08 20:14 | -4.01819 | 104.98278 | 34621 ft | 467 kts | 319° |
| 2026-05-08 20:14 | -3.99436 | 104.96062 | 34932 ft | 466 kts | 319° |
| 2026-05-08 20:14 | -3.97060 | 104.93859 | 35220 ft | 465 kts | 320° |
| 2026-05-08 20:15 | -3.94719 | 104.91684 | 35473 ft | 465 kts | 319° |
| 2026-05-08 20:15 | -3.92356 | 104.89479 | 35738 ft | 464 kts | 319° |
| 2026-05-08 20:15 | -3.90000 | 104.87269 | 36005 ft | 464 kts | 319° |
| 2026-05-08 20:15 | -3.87649 | 104.85059 | 36263 ft | 463 kts | 319° |
| 2026-05-08 20:16 | -3.85304 | 104.82857 | 36502 ft | 462 kts | 319° |
| 2026-05-08 20:16 | -3.82956 | 104.80661 | 36736 ft | 461 kts | 320° |
| 2026-05-08 20:16 | -3.80616 | 104.78477 | 37033 ft | 459 kts | 320° |
| 2026-05-08 20:16 | -3.78287 | 104.76300 | 37353 ft | 456 kts | 320° |
| 2026-05-08 20:17 | -3.75973 | 104.74137 | 37668 ft | 454 kts | 320° |
| 2026-05-08 20:17 | -3.73668 | 104.71983 | 37838 ft | 452 kts | 320° |
| 2026-05-08 20:17 | -3.69082 | 104.67691 | 37866 ft | 450 kts | 320° |
| 2026-05-08 20:18 | -3.64506 | 104.63408 | 37867 ft | 450 kts | 319° |
| 2026-05-08 20:18 | -3.59929 | 104.59125 | 37864 ft | 450 kts | 320° |
| 2026-05-08 20:19 | -3.55350 | 104.54853 | 37872 ft | 450 kts | 320° |
| 2026-05-08 20:19 | -3.50771 | 104.50573 | 37880 ft | 451 kts | 319° |
| 2026-05-08 20:20 | -3.46179 | 104.46284 | 37875 ft | 451 kts | 320° |
| 2026-05-08 20:20 | -3.41589 | 104.42004 | 37883 ft | 451 kts | 320° |
| 2026-05-08 20:21 | -3.36998 | 104.37717 | 37860 ft | 451 kts | 320° |
| 2026-05-08 20:21 | -3.32405 | 104.33425 | 37878 ft | 452 kts | 320° |
| 2026-05-08 20:22 | -3.27810 | 104.29137 | 37882 ft | 452 kts | 320° |
| 2026-05-08 20:22 | -3.23960 | 104.25551 | 37885 ft | 452 kts | 320° |
| 2026-05-08 20:23 | -3.18617 | 104.20560 | 37885 ft | 452 kts | 320° |
| 2026-05-08 20:23 | -3.14020 | 104.16268 | 37881 ft | 452 kts | 320° |
| 2026-05-08 20:24 | -3.09431 | 104.11976 | 37885 ft | 452 kts | 319° |
| 2026-05-08 20:24 | -3.04841 | 104.07685 | 37881 ft | 452 kts | 320° |
| 2026-05-08 20:25 | -3.00237 | 104.03396 | 37881 ft | 452 kts | 320° |
| 2026-05-08 20:25 | -2.95632 | 103.99107 | 37880 ft | 453 kts | 320° |
| 2026-05-08 20:26 | -2.91028 | 103.94810 | 37865 ft | 453 kts | 320° |
| 2026-05-08 20:26 | -2.87205 | 103.91237 | 37867 ft | 453 kts | 320° |
| 2026-05-08 20:27 | -2.81820 | 103.86215 | 37884 ft | 453 kts | 320° |
| 2026-05-08 20:27 | -2.77243 | 103.81945 | 37880 ft | 453 kts | 320° |
| 2026-05-08 20:28 | -2.72630 | 103.77646 | 37881 ft | 453 kts | 320° |
| 2026-05-08 20:28 | -2.68766 | 103.74041 | 37880 ft | 453 kts | 320° |
| 2026-05-08 20:29 | -2.64160 | 103.69743 | 37869 ft | 453 kts | 320° |
| 2026-05-08 20:29 | -2.58795 | 103.64748 | 37869 ft | 453 kts | 320° |
| 2026-05-08 20:30 | -2.54932 | 103.61149 | 37867 ft | 453 kts | 320° |
| 2026-05-08 20:30 | -2.50316 | 103.56849 | 37869 ft | 454 kts | 320° |
| 2026-05-08 20:31 | -2.45701 | 103.52539 | 37867 ft | 454 kts | 320° |
| 2026-05-08 20:31 | -2.41079 | 103.48237 | 37872 ft | 454 kts | 320° |
| 2026-05-08 20:32 | -2.36454 | 103.43932 | 37862 ft | 454 kts | 320° |
| 2026-05-08 20:32 | -2.31866 | 103.39656 | 37867 ft | 454 kts | 320° |
| 2026-05-08 20:33 | -2.27253 | 103.35347 | 37867 ft | 454 kts | 320° |
| 2026-05-08 20:33 | -2.22640 | 103.31033 | 37865 ft | 454 kts | 319° |
| 2026-05-08 20:34 | -2.18024 | 103.26718 | 37867 ft | 454 kts | 319° |
| 2026-05-08 20:35 | -2.11093 | 103.20244 | 37866 ft | 455 kts | 319° |
| 2026-05-08 20:35 | -2.06467 | 103.15928 | 37874 ft | 455 kts | 320° |
| 2026-05-08 20:36 | -2.01841 | 103.11608 | 37871 ft | 455 kts | 319° |
| 2026-05-08 20:36 | -1.97215 | 103.07285 | 37867 ft | 454 kts | 319° |
| 2026-05-08 20:37 | -1.92596 | 103.02975 | 37864 ft | 454 kts | 319° |
| 2026-05-08 20:37 | -1.87973 | 102.98660 | 37870 ft | 455 kts | 319° |
| 2026-05-08 20:38 | -1.83347 | 102.94344 | 37867 ft | 455 kts | 319° |
| 2026-05-08 20:38 | -1.78721 | 102.90020 | 37865 ft | 456 kts | 319° |
| 2026-05-08 20:39 | -1.74092 | 102.85700 | 37862 ft | 455 kts | 319° |
| 2026-05-08 20:39 | -1.69457 | 102.81381 | 37863 ft | 455 kts | 319° |
| 2026-05-08 20:40 | -1.64835 | 102.77063 | 37860 ft | 455 kts | 319° |
| 2026-05-08 20:40 | -1.60211 | 102.72747 | 37858 ft | 455 kts | 319° |
| 2026-05-08 20:41 | -1.55576 | 102.68429 | 37858 ft | 455 kts | 319° |
| 2026-05-08 20:41 | -1.50947 | 102.64108 | 37852 ft | 455 kts | 319° |
| 2026-05-08 20:42 | -1.46314 | 102.59777 | 37856 ft | 456 kts | 319° |
| 2026-05-08 20:42 | -1.41692 | 102.55452 | 37854 ft | 455 kts | 319° |
| 2026-05-08 20:43 | -1.37065 | 102.51120 | 37856 ft | 456 kts | 319° |
| 2026-05-08 20:43 | -1.32430 | 102.46804 | 37850 ft | 455 kts | 319° |
| 2026-05-08 20:44 | -1.27800 | 102.42486 | 37849 ft | 455 kts | 319° |
| 2026-05-08 20:44 | -1.23219 | 102.38192 | 37847 ft | 455 kts | 319° |
| 2026-05-08 20:45 | -1.18594 | 102.33880 | 37841 ft | 454 kts | 319° |
| 2026-05-08 20:45 | -1.13974 | 102.29576 | 37838 ft | 455 kts | 319° |
| 2026-05-08 20:46 | -1.09355 | 102.25261 | 37838 ft | 454 kts | 319° |
| 2026-05-08 20:46 | -1.04738 | 102.20949 | 37836 ft | 455 kts | 319° |
| 2026-05-08 20:47 | -1.00114 | 102.16634 | 37831 ft | 455 kts | 319° |
| 2026-05-08 20:47 | -0.95489 | 102.12320 | 37831 ft | 454 kts | 319° |
| 2026-05-08 20:48 | -0.90874 | 102.08006 | 37827 ft | 454 kts | 318° |
| 2026-05-08 20:48 | -0.86263 | 102.03693 | 37827 ft | 454 kts | 319° |
| 2026-05-08 20:49 | -0.81649 | 101.99381 | 37825 ft | 454 kts | 319° |
| 2026-05-08 20:49 | -0.77032 | 101.95080 | 37826 ft | 454 kts | 318° |
| 2026-05-08 20:50 | -0.72414 | 101.90777 | 37823 ft | 454 kts | 318° |
| 2026-05-08 20:50 | -0.67804 | 101.86471 | 37827 ft | 454 kts | 318° |
| 2026-05-08 20:51 | -0.63196 | 101.82169 | 37821 ft | 453 kts | 318° |
| 2026-05-08 20:51 | -0.58586 | 101.77872 | 37822 ft | 453 kts | 318° |
| 2026-05-08 20:52 | -0.53973 | 101.73573 | 37819 ft | 453 kts | 318° |
| 2026-05-08 20:52 | -0.49366 | 101.69274 | 37821 ft | 453 kts | 318° |
| 2026-05-08 20:53 | -0.44761 | 101.64969 | 37817 ft | 454 kts | 318° |
| 2026-05-08 20:53 | -0.40148 | 101.60661 | 37818 ft | 454 kts | 318° |
| 2026-05-08 20:54 | -0.35538 | 101.56360 | 37817 ft | 453 kts | 318° |
| 2026-05-08 20:54 | -0.30931 | 101.52058 | 37815 ft | 453 kts | 318° |
| 2026-05-08 20:55 | -0.26326 | 101.47754 | 37814 ft | 453 kts | 318° |
| 2026-05-08 20:55 | -0.21714 | 101.43449 | 37815 ft | 454 kts | 318° |
| 2026-05-08 20:56 | -0.17097 | 101.39148 | 37809 ft | 454 kts | 318° |
| 2026-05-08 20:56 | -0.12486 | 101.34847 | 37809 ft | 454 kts | 318° |
| 2026-05-08 20:57 | -0.07870 | 101.30536 | 37812 ft | 454 kts | 318° |
| 2026-05-08 20:57 | -0.03245 | 101.26226 | 37810 ft | 455 kts | 318° |
| 2026-05-08 20:58 | 0.01380 | 101.21913 | 37810 ft | 455 kts | 318° |
| 2026-05-08 20:58 | 0.06001 | 101.17605 | 37801 ft | 454 kts | 318° |
| 2026-05-08 20:59 | 0.10654 | 101.13259 | 37795 ft | 463 kts | 318° |
| 2026-05-08 20:59 | 0.15366 | 101.08855 | 37795 ft | 471 kts | 318° |
| 2026-05-08 21:00 | 0.20162 | 101.04385 | 37794 ft | 472 kts | 318° |
| 2026-05-08 21:00 | 0.24967 | 100.99904 | 37795 ft | 473 kts | 318° |
| 2026-05-08 21:01 | 0.29800 | 100.95385 | 37794 ft | 473 kts | 318° |
| 2026-05-08 21:01 | 0.34573 | 100.90926 | 37793 ft | 473 kts | 318° |
| 2026-05-08 21:02 | 0.39384 | 100.86441 | 37793 ft | 473 kts | 318° |
| 2026-05-08 21:02 | 0.44204 | 100.81945 | 37797 ft | 474 kts | 318° |
| 2026-05-08 21:03 | 0.49021 | 100.77448 | 37800 ft | 474 kts | 318° |
| 2026-05-08 21:03 | 0.53845 | 100.72944 | 37806 ft | 475 kts | 318° |
| 2026-05-08 21:04 | 0.58667 | 100.68444 | 37807 ft | 475 kts | 318° |
| 2026-05-08 21:04 | 0.63506 | 100.63941 | 37808 ft | 475 kts | 318° |
| 2026-05-08 21:05 | 0.68339 | 100.59428 | 37810 ft | 476 kts | 318° |
| 2026-05-08 21:05 | 0.73171 | 100.54909 | 37811 ft | 475 kts | 318° |
| 2026-05-08 21:06 | 0.78003 | 100.50399 | 37816 ft | 476 kts | 318° |
| 2026-05-08 21:06 | 0.82842 | 100.45884 | 37821 ft | 476 kts | 318° |
| 2026-05-08 21:07 | 0.87681 | 100.41376 | 37822 ft | 476 kts | 318° |
| 2026-05-08 21:07 | 0.92518 | 100.36869 | 37815 ft | 476 kts | 318° |
| 2026-05-08 21:08 | 0.97350 | 100.32352 | 37815 ft | 476 kts | 318° |
| 2026-05-08 21:08 | 1.02183 | 100.27828 | 37818 ft | 476 kts | 318° |
| 2026-05-08 21:09 | 1.07019 | 100.23308 | 37818 ft | 476 kts | 318° |
| 2026-05-08 21:09 | 1.11866 | 100.18792 | 37817 ft | 476 kts | 318° |
| 2026-05-08 21:10 | 1.16707 | 100.14276 | 37817 ft | 476 kts | 318° |
| 2026-05-08 21:10 | 1.21551 | 100.09756 | 37816 ft | 477 kts | 318° |
| 2026-05-08 21:11 | 1.26391 | 100.05220 | 37822 ft | 477 kts | 318° |
| 2026-05-08 21:11 | 1.31238 | 100.00686 | 37825 ft | 478 kts | 318° |
| 2026-05-08 21:12 | 1.36104 | 99.96144 | 37832 ft | 478 kts | 318° |
| 2026-05-08 21:12 | 1.40962 | 99.91601 | 37831 ft | 478 kts | 318° |
| 2026-05-08 21:12 | 1.43398 | 99.89327 | 37477 ft | 482 kts | 318° |
| 2026-05-08 21:13 | 1.45014 | 99.87818 | 37279 ft | 478 kts | 318° |
| 2026-05-08 21:13 | 1.47444 | 99.85550 | 37035 ft | 478 kts | 318° |
| 2026-05-08 21:13 | 1.50663 | 99.82550 | 36703 ft | 478 kts | 318° |
| 2026-05-08 21:13 | 1.52301 | 99.81022 | 36532 ft | 478 kts | 318° |
| 2026-05-08 21:14 | 1.54729 | 99.78752 | 36284 ft | 478 kts | 318° |
| 2026-05-08 21:14 | 1.57162 | 99.76479 | 36034 ft | 480 kts | 318° |
| 2026-05-08 21:14 | 1.59607 | 99.74197 | 35791 ft | 482 kts | 318° |
| 2026-05-08 21:14 | 1.62867 | 99.71153 | 35457 ft | 486 kts | 318° |
| 2026-05-08 21:15 | 1.64538 | 99.69590 | 35290 ft | 488 kts | 318° |
| 2026-05-08 21:15 | 1.67019 | 99.67268 | 35043 ft | 489 kts | 318° |
| 2026-05-08 21:15 | 1.69506 | 99.64943 | 34787 ft | 490 kts | 317° |
| 2026-05-08 21:15 | 1.71996 | 99.62618 | 34544 ft | 491 kts | 317° |
| 2026-05-08 21:16 | 1.74495 | 99.60287 | 34289 ft | 491 kts | 317° |
| 2026-05-08 21:16 | 1.77058 | 99.58029 | 34024 ft | 491 kts | 324° |
| 2026-05-08 21:16 | 1.79936 | 99.56215 | 33789 ft | 490 kts | 334° |
| 2026-05-08 21:16 | 1.82947 | 99.54712 | 33550 ft | 491 kts | 334° |
| 2026-05-08 21:17 | 1.86031 | 99.53148 | 33288 ft | 491 kts | 334° |
| 2026-05-08 21:17 | 1.89027 | 99.51604 | 33038 ft | 492 kts | 333° |
| 2026-05-08 21:17 | 1.92062 | 99.50026 | 32788 ft | 492 kts | 333° |
| 2026-05-08 21:17 | 1.95137 | 99.48423 | 32534 ft | 492 kts | 333° |
| 2026-05-08 21:18 | 1.98134 | 99.46864 | 32287 ft | 492 kts | 333° |
| 2026-05-08 21:18 | 2.01217 | 99.45268 | 32033 ft | 492 kts | 334° |
| 2026-05-08 21:18 | 2.04264 | 99.43696 | 31784 ft | 493 kts | 334° |
| 2026-05-08 21:18 | 2.07313 | 99.42126 | 31488 ft | 494 kts | 334° |
| 2026-05-08 21:19 | 2.10339 | 99.40567 | 30412 ft | 499 kts | 334° |
| 2026-05-08 21:19 | 2.13412 | 99.38984 | 29757 ft | 496 kts | 334° |
| 2026-05-08 21:19 | 2.16482 | 99.37399 | 29018 ft | 497 kts | 334° |
| 2026-05-08 21:19 | 2.19557 | 99.35813 | 28302 ft | 498 kts | 334° |
| 2026-05-08 21:20 | 2.22647 | 99.34220 | 27582 ft | 500 kts | 334° |
| 2026-05-08 21:20 | 2.25746 | 99.32624 | 26861 ft | 502 kts | 334° |
| 2026-05-08 21:20 | 2.28861 | 99.31023 | 26138 ft | 504 kts | 334° |
| 2026-05-08 21:20 | 2.31969 | 99.29423 | 25426 ft | 501 kts | 334° |
| 2026-05-08 21:21 | 2.35054 | 99.27832 | 24714 ft | 497 kts | 334° |
| 2026-05-08 21:21 | 2.38107 | 99.26254 | 24036 ft | 492 kts | 334° |
| 2026-05-08 21:21 | 2.41136 | 99.24688 | 23372 ft | 488 kts | 334° |
| 2026-05-08 21:21 | 2.44230 | 99.23366 | 22738 ft | 481 kts | 344° |
| 2026-05-08 21:22 | 2.47473 | 99.22624 | 22202 ft | 476 kts | 350° |
| 2026-05-08 21:22 | 2.50711 | 99.21993 | 21646 ft | 472 kts | 350° |
| 2026-05-08 21:22 | 2.53920 | 99.21364 | 21100 ft | 468 kts | 350° |
| 2026-05-08 21:22 | 2.57104 | 99.20736 | 20554 ft | 464 kts | 350° |
| 2026-05-08 21:23 | 2.60258 | 99.20112 | 20042 ft | 461 kts | 350° |
| 2026-05-08 21:23 | 2.63386 | 99.19492 | 19502 ft | 457 kts | 350° |
| 2026-05-08 21:23 | 2.66496 | 99.18877 | 18969 ft | 453 kts | 350° |
| 2026-05-08 21:23 | 2.69578 | 99.18270 | 18452 ft | 449 kts | 350° |
| 2026-05-08 21:24 | 2.72634 | 99.17669 | 17934 ft | 446 kts | 350° |
| 2026-05-08 21:24 | 2.75667 | 99.17072 | 17424 ft | 442 kts | 350° |
| 2026-05-08 21:24 | 2.78676 | 99.16479 | 16900 ft | 439 kts | 350° |
| 2026-05-08 21:24 | 2.81655 | 99.15893 | 16398 ft | 435 kts | 350° |
| 2026-05-08 21:25 | 2.84613 | 99.15312 | 15889 ft | 431 kts | 350° |
| 2026-05-08 21:25 | 2.87548 | 99.14735 | 15394 ft | 428 kts | 349° |
| 2026-05-08 21:25 | 2.90457 | 99.14163 | 14901 ft | 424 kts | 349° |
| 2026-05-08 21:25 | 2.93339 | 99.13595 | 14407 ft | 421 kts | 349° |
| 2026-05-08 21:26 | 2.96162 | 99.12882 | 13920 ft | 418 kts | 340° |
| 2026-05-08 21:26 | 2.98723 | 99.11544 | 13433 ft | 415 kts | 325° |
| 2026-05-08 21:26 | 3.00888 | 99.09651 | 12963 ft | 412 kts | 315° |
| 2026-05-08 21:26 | 3.02911 | 99.07634 | 12487 ft | 409 kts | 315° |
| 2026-05-08 21:27 | 3.04919 | 99.05635 | 12011 ft | 406 kts | 315° |
| 2026-05-08 21:27 | 3.06914 | 99.03652 | 11543 ft | 402 kts | 315° |
| 2026-05-08 21:27 | 3.08891 | 99.01687 | 11078 ft | 399 kts | 315° |
| 2026-05-08 21:27 | 3.10853 | 98.99736 | 10616 ft | 396 kts | 315° |
| 2026-05-08 21:28 | 3.12796 | 98.97801 | 10298 ft | 392 kts | 315° |
| 2026-05-08 21:28 | 3.14706 | 98.95903 | 10192 ft | 392 kts | 315° |
| 2026-05-08 21:28 | 3.16665 | 98.93957 | 10014 ft | 391 kts | 315° |
| 2026-05-08 21:28 | 3.18568 | 98.92065 | 9844 ft | 391 kts | 314° |
| 2026-05-08 21:29 | 3.20522 | 98.90118 | 9287 ft | 389 kts | 314° |
| 2026-05-08 21:29 | 3.22404 | 98.88240 | 8936 ft | 388 kts | 314° |
| 2026-05-08 21:29 | 3.24331 | 98.86318 | 8407 ft | 384 kts | 314° |
| 2026-05-08 21:29 | 3.26189 | 98.84466 | 7913 ft | 381 kts | 314° |
| 2026-05-08 21:30 | 3.28065 | 98.82598 | 7397 ft | 379 kts | 314° |
| 2026-05-08 21:30 | 3.29894 | 98.80777 | 6958 ft | 358 kts | 314° |
| 2026-05-08 21:30 | 3.31592 | 98.79091 | 6630 ft | 329 kts | 315° |
| 2026-05-08 21:30 | 3.33158 | 98.77571 | 6462 ft | 300 kts | 315° |
| 2026-05-08 21:31 | 3.34625 | 98.76174 | 6016 ft | 286 kts | 316° |
| 2026-05-08 21:31 | 3.36055 | 98.74819 | 5343 ft | 281 kts | 316° |
| 2026-05-08 21:31 | 3.37459 | 98.73489 | 4839 ft | 276 kts | 316° |
| 2026-05-08 21:31 | 3.38850 | 98.72168 | 4437 ft | 275 kts | 316° |
| 2026-05-08 21:32 | 3.40240 | 98.70851 | 4056 ft | 275 kts | 316° |
| 2026-05-08 21:32 | 3.41579 | 98.69584 | 3914 ft | 252 kts | 317° |
| 2026-05-08 21:32 | 3.42993 | 98.68720 | 3822 ft | 229 kts | 345° |
| 2026-05-08 21:32 | 3.44505 | 98.68635 | 3721 ft | 211 kts | 13° |
| 2026-05-08 21:33 | 3.45801 | 98.69189 | 3638 ft | 200 kts | 38° |
| 2026-05-08 21:33 | 3.46808 | 98.70141 | 3551 ft | 199 kts | 45° |
| 2026-05-08 21:33 | 3.47787 | 98.71112 | 3450 ft | 198 kts | 45° |
| 2026-05-08 21:33 | 3.48761 | 98.72082 | 3359 ft | 197 kts | 46° |
| 2026-05-08 21:34 | 3.49734 | 98.73051 | 3259 ft | 197 kts | 45° |
| 2026-05-08 21:34 | 3.50696 | 98.74009 | 3202 ft | 188 kts | 46° |
| 2026-05-08 21:34 | 3.51584 | 98.74893 | 3022 ft | 174 kts | 46° |
| 2026-05-08 21:34 | 3.52409 | 98.75715 | 2826 ft | 161 kts | 46° |
| 2026-05-08 21:35 | 3.53184 | 98.76486 | 2608 ft | 154 kts | 46° |
| 2026-05-08 21:35 | 3.53933 | 98.77233 | 2412 ft | 151 kts | 46° |
| 2026-05-08 21:35 | 3.54673 | 98.77970 | 2215 ft | 149 kts | 46° |
| 2026-05-08 21:35 | 3.55407 | 98.78702 | 2017 ft | 148 kts | 46° |
| 2026-05-08 21:36 | 3.56136 | 98.79428 | 1820 ft | 148 kts | 46° |
| 2026-05-08 21:36 | 3.56862 | 98.80151 | 1626 ft | 147 kts | 46° |
| 2026-05-08 21:36 | 3.57586 | 98.80872 | 1429 ft | 147 kts | 46° |
| 2026-05-08 21:36 | 3.58308 | 98.81592 | 1248 ft | 146 kts | 46° |
| 2026-05-08 21:37 | 3.59025 | 98.82308 | 1037 ft | 146 kts | 45° |
| 2026-05-08 21:37 | 3.59742 | 98.83021 | 845 ft | 145 kts | 46° |
| 2026-05-08 21:37 | 3.60459 | 98.83733 | 660 ft | 145 kts | 45° |
| 2026-05-08 21:37 | 3.61172 | 98.84443 | 463 ft | 144 kts | 45° |
| 2026-05-08 21:38 | 3.61878 | 98.85151 | 263 ft | 143 kts | 45° |
| 2026-05-08 21:38 | 3.62580 | 98.85858 | 99 ft | 143 kts | 45° |
| 2026-05-08 21:38 | 3.63255 | 98.86528 | 35 ft | 125 kts | 43° |
| 2026-05-08 21:38 | 3.63738 | 98.87015 | 37 ft | 73 kts | 44° |
| 2026-05-08 21:39 | 3.64026 | 98.87303 | 34 ft | 42 kts | 49° |
| 2026-05-08 21:39 | 3.64095 | 98.87460 | 35 ft | 20 kts | 69° |
| 2026-05-08 21:39 | 3.64136 | 98.87597 | 37 ft | 21 kts | 75° |
| 2026-05-08 21:39 | 3.64201 | 98.87721 | 38 ft | 19 kts | 46° |
| 2026-05-08 21:40 | 3.64284 | 98.87808 | 39 ft | 16 kts | 50° |
| 2026-05-08 21:40 | 3.64273 | 98.87906 | 40 ft | 15 kts | 93° |
| 2026-05-08 21:40 | 3.64279 | 98.88002 | 40 ft | 15 kts | 131° |
| 2026-05-08 21:41 | 3.64127 | 98.88144 | 40 ft | 12 kts | 168° |
| 2026-05-08 21:41 | 3.64061 | 98.88103 | 38 ft | 11 kts | 226° |
| 2026-05-08 21:41 | 3.64011 | 98.88052 | 40 ft | 10 kts | 226° |
| 2026-05-08 21:41 | 3.63940 | 98.87978 | 38 ft | 12 kts | 225° |
| 2026-05-08 21:42 | 3.63870 | 98.87975 | 38 ft | 10 kts | 138° |
| 2026-05-08 21:42 | 3.63821 | 98.88023 | 40 ft | 9 kts | 135° |
| 2026-05-08 21:42 | 3.63778 | 98.88066 | 39 ft | 8 kts | 135° |
| 2026-05-08 21:42 | 3.63739 | 98.88105 | 38 ft | 7 kts | 135° |
| 2026-05-08 21:43 | 3.63705 | 98.88138 | 40 ft | 6 kts | 135° |
| 2026-05-08 21:43 | 3.63671 | 98.88144 | 40 ft | 5 kts | 204° |
| 2026-05-08 21:43 | 3.63649 | 98.88122 | 39 ft | 5 kts | 225° |
| 2026-05-08 21:43 | 3.63628 | 98.88102 | 40 ft | 3 kts | 225° |
| 2026-05-08 21:44 | 3.63623 | 98.88096 | 40 ft | 0 kts | 225° |
| 2026-05-08 21:44 | 3.63622 | 98.88095 | 40 ft | 0 kts | 225° |
| 2026-05-08 21:44 | 3.63621 | 98.88095 | 40 ft | 0 kts | 225° |